sensor_id;sensor_type;location;lat;lon;timestamp;pressure;altitude;pressure_sealevel;temperature;humidity
53514;BME280;39768;54.148;12.174;2023-04-15T00:03:20;100810.19;;;11.01;100.00
53514;BME280;39768;54.148;12.174;2023-04-15T00:07:22;100798.44;;;11.16;100.00
53514;BME280;39768;54.148;12.174;2023-04-15T00:11:23;100790.75;;;12.05;100.00
53514;BME280;39768;54.148;12.174;2023-04-15T00:15:24;100785.41;;;12.07;100.00
53514;BME280;39768;54.148;12.174;2023-04-15T00:19:26;100785.03;;;11.79;100.00
53514;BME280;39768;54.148;12.174;2023-04-15T00:23:27;100776.16;;;12.26;100.00
53514;BME280;39768;54.148;12.174;2023-04-15T00:27:29;100778.50;;;10.89;100.00
53514;BME280;39768;54.148;12.174;2023-04-15T00:31:31;100780.84;;;12.13;100.00
53514;BME280;39768;54.148;12.174;2023-04-15T00:35:32;100783.59;;;12.52;100.00
53514;BME280;39768;54.148;12.174;2023-04-15T00:39:33;100781.22;;;12.38;100.00
53514;BME280;39768;54.148;12.174;2023-04-15T00:43:35;100775.38;;;12.19;100.00
53514;BME280;39768;54.148;12.174;2023-04-15T00:47:40;100775.59;;;12.10;100.00
53514;BME280;39768;54.148;12.174;2023-04-15T00:51:42;100771.50;;;11.91;100.00
53514;BME280;39768;54.148;12.174;2023-04-15T00:55:44;100772.69;;;10.63;100.00
53514;BME280;39768;54.148;12.174;2023-04-15T00:59:45;100764.16;;;11.01;100.00
53514;BME280;39768;54.148;12.174;2023-04-15T01:03:50;100766.72;;;11.60;100.00
53514;BME280;39768;54.148;12.174;2023-04-15T01:07:52;100773.19;;;10.87;100.00
53514;BME280;39768;54.148;12.174;2023-04-15T01:11:54;100760.44;;;11.64;100.00
53514;BME280;39768;54.148;12.174;2023-04-15T01:15:55;100757.75;;;11.14;100.00
53514;BME280;39768;54.148;12.174;2023-04-15T01:19:57;100754.28;;;12.10;100.00
53514;BME280;39768;54.148;12.174;2023-04-15T01:23:59;100745.53;;;12.04;100.00
53514;BME280;39768;54.148;12.174;2023-04-15T01:28:01;100750.63;;;11.68;100.00
53514;BME280;39768;54.148;12.174;2023-04-15T01:32:03;100746.31;;;12.52;100.00
53514;BME280;39768;54.148;12.174;2023-04-15T01:36:06;100749.50;;;11.30;100.00
53514;BME280;39768;54.148;12.174;2023-04-15T01:40:09;100744.75;;;12.00;100.00
53514;BME280;39768;54.148;12.174;2023-04-15T01:44:10;100753.66;;;11.97;100.00
53514;BME280;39768;54.148;12.174;2023-04-15T01:48:13;100745.78;;;11.91;100.00
53514;BME280;39768;54.148;12.174;2023-04-15T01:52:14;100750.47;;;11.79;100.00
53514;BME280;39768;54.148;12.174;2023-04-15T01:56:16;100750.03;;;12.02;100.00
53514;BME280;39768;54.148;12.174;2023-04-15T02:00:18;100749.22;;;12.41;100.00
53514;BME280;39768;54.148;12.174;2023-04-15T02:04:20;100735.94;;;11.47;100.00
53514;BME280;39768;54.148;12.174;2023-04-15T02:08:22;100738.84;;;12.29;100.00
53514;BME280;39768;54.148;12.174;2023-04-15T02:12:23;100727.97;;;12.38;100.00
53514;BME280;39768;54.148;12.174;2023-04-15T02:16:25;100734.69;;;12.56;100.00
53514;BME280;39768;54.148;12.174;2023-04-15T02:20:26;100737.75;;;11.94;100.00
53514;BME280;39768;54.148;12.174;2023-04-15T02:24:32;100731.72;;;11.86;100.00
53514;BME280;39768;54.148;12.174;2023-04-15T02:28:33;100732.72;;;11.79;100.00
53514;BME280;39768;54.148;12.174;2023-04-15T02:32:35;100734.59;;;11.22;100.00
53514;BME280;39768;54.148;12.174;2023-04-15T02:36:38;100741.22;;;11.49;100.00
53514;BME280;39768;54.148;12.174;2023-04-15T02:40:41;100735.69;;;11.09;100.00
53514;BME280;39768;54.148;12.174;2023-04-15T02:44:42;100731.97;;;11.71;100.00
53514;BME280;39768;54.148;12.174;2023-04-15T02:48:44;100731.06;;;12.18;100.00
53514;BME280;39768;54.148;12.174;2023-04-15T02:52:46;100730.38;;;12.09;100.00
53514;BME280;39768;54.148;12.174;2023-04-15T02:56:47;100728.34;;;11.77;100.00
53514;BME280;39768;54.148;12.174;2023-04-15T03:00:50;100732.59;;;12.30;100.00
53514;BME280;39768;54.148;12.174;2023-04-15T03:04:53;100746.13;;;12.19;100.00
53514;BME280;39768;54.148;12.174;2023-04-15T03:08:55;100741.38;;;12.33;100.00
53514;BME280;39768;54.148;12.174;2023-04-15T03:12:57;100742.34;;;12.31;100.00
53514;BME280;39768;54.148;12.174;2023-04-15T03:16:59;100732.09;;;12.53;100.00
53514;BME280;39768;54.148;12.174;2023-04-15T03:21:00;100740.13;;;12.08;100.00
53514;BME280;39768;54.148;12.174;2023-04-15T03:25:04;100741.13;;;12.02;100.00
53514;BME280;39768;54.148;12.174;2023-04-15T03:29:07;100739.97;;;12.59;100.00
53514;BME280;39768;54.148;12.174;2023-04-15T03:33:08;100737.63;;;12.44;100.00
53514;BME280;39768;54.148;12.174;2023-04-15T03:37:10;100748.19;;;12.47;100.00
53514;BME280;39768;54.148;12.174;2023-04-15T03:41:12;100750.94;;;12.00;100.00
53514;BME280;39768;54.148;12.174;2023-04-15T03:45:14;100742.47;;;11.79;100.00
53514;BME280;39768;54.148;12.174;2023-04-15T03:49:15;100744.53;;;11.61;100.00
53514;BME280;39768;54.148;12.174;2023-04-15T03:53:17;100740.59;;;11.33;100.00
53514;BME280;39768;54.148;12.174;2023-04-15T03:57:18;100744.47;;;11.14;100.00
53514;BME280;39768;54.148;12.174;2023-04-15T04:01:19;100746.69;;;11.41;100.00
53514;BME280;39768;54.148;12.174;2023-04-15T04:05:21;100761.28;;;11.66;100.00
53514;BME280;39768;54.148;12.174;2023-04-15T04:09:22;100757.03;;;11.03;100.00
53514;BME280;39768;54.148;12.174;2023-04-15T04:13:24;100757.59;;;11.24;100.00
53514;BME280;39768;54.148;12.174;2023-04-15T04:17:25;100763.00;;;11.18;100.00
53514;BME280;39768;54.148;12.174;2023-04-15T04:21:27;100767.19;;;11.31;100.00
53514;BME280;39768;54.148;12.174;2023-04-15T04:25:28;100765.19;;;10.90;100.00
53514;BME280;39768;54.148;12.174;2023-04-15T04:29:29;100765.00;;;11.03;100.00
53514;BME280;39768;54.148;12.174;2023-04-15T04:33:31;100770.91;;;10.63;100.00
53514;BME280;39768;54.148;12.174;2023-04-15T04:37:34;100783.53;;;10.43;100.00
53514;BME280;39768;54.148;12.174;2023-04-15T04:41:36;100774.81;;;10.35;100.00
53514;BME280;39768;54.148;12.174;2023-04-15T04:45:37;100787.72;;;10.64;100.00
53514;BME280;39768;54.148;12.174;2023-04-15T04:49:39;100790.19;;;10.77;100.00
53514;BME280;39768;54.148;12.174;2023-04-15T04:53:41;100781.88;;;10.99;100.00
53514;BME280;39768;54.148;12.174;2023-04-15T04:57:43;100788.41;;;11.88;100.00
53514;BME280;39768;54.148;12.174;2023-04-15T05:01:44;100793.41;;;11.56;100.00
53514;BME280;39768;54.148;12.174;2023-04-15T05:05:46;100787.59;;;11.31;100.00
53514;BME280;39768;54.148;12.174;2023-04-15T05:09:49;100797.00;;;10.97;100.00
53514;BME280;39768;54.148;12.174;2023-04-15T05:13:51;100798.41;;;11.73;100.00
53514;BME280;39768;54.148;12.174;2023-04-15T05:17:52;100802.00;;;11.15;100.00
53514;BME280;39768;54.148;12.174;2023-04-15T05:21:53;100802.38;;;11.47;100.00
53514;BME280;39768;54.148;12.174;2023-04-15T05:25:55;100801.25;;;12.13;100.00
53514;BME280;39768;54.148;12.174;2023-04-15T05:29:56;100808.69;;;11.95;100.00
53514;BME280;39768;54.148;12.174;2023-04-15T05:33:58;100805.25;;;11.87;100.00
53514;BME280;39768;54.148;12.174;2023-04-15T05:37:59;100818.84;;;12.20;100.00
53514;BME280;39768;54.148;12.174;2023-04-15T05:42:01;100811.56;;;11.83;100.00
53514;BME280;39768;54.148;12.174;2023-04-15T05:46:02;100816.78;;;11.34;100.00
53514;BME280;39768;54.148;12.174;2023-04-15T05:50:04;100819.78;;;11.68;100.00
53514;BME280;39768;54.148;12.174;2023-04-15T05:54:06;100830.84;;;11.96;100.00
53514;BME280;39768;54.148;12.174;2023-04-15T05:58:08;100828.41;;;11.84;100.00
53514;BME280;39768;54.148;12.174;2023-04-15T06:02:09;100835.75;;;12.62;100.00
53514;BME280;39768;54.148;12.174;2023-04-15T06:06:11;100838.53;;;12.57;100.00
53514;BME280;39768;54.148;12.174;2023-04-15T06:10:12;100836.34;;;11.87;100.00
53514;BME280;39768;54.148;12.174;2023-04-15T06:14:13;100842.75;;;11.72;100.00
53514;BME280;39768;54.148;12.174;2023-04-15T06:18:15;100853.59;;;12.12;100.00
53514;BME280;39768;54.148;12.174;2023-04-15T06:22:16;100851.50;;;12.29;100.00
53514;BME280;39768;54.148;12.174;2023-04-15T06:26:18;100853.84;;;12.46;100.00
53514;BME280;39768;54.148;12.174;2023-04-15T06:30:19;100857.84;;;12.67;100.00
53514;BME280;39768;54.148;12.174;2023-04-15T06:34:23;100854.56;;;12.96;100.00
53514;BME280;39768;54.148;12.174;2023-04-15T06:38:24;100866.09;;;12.55;100.00
53514;BME280;39768;54.148;12.174;2023-04-15T06:42:26;100859.34;;;13.60;100.00
53514;BME280;39768;54.148;12.174;2023-04-15T06:46:27;100859.44;;;13.56;100.00
53514;BME280;39768;54.148;12.174;2023-04-15T06:50:29;100862.38;;;13.81;100.00
53514;BME280;39768;54.148;12.174;2023-04-15T06:54:30;100867.84;;;13.39;100.00
53514;BME280;39768;54.148;12.174;2023-04-15T06:58:32;100867.53;;;13.88;100.00
53514;BME280;39768;54.148;12.174;2023-04-15T07:02:33;100872.63;;;13.97;100.00
53514;BME280;39768;54.148;12.174;2023-04-15T07:06:35;100874.34;;;14.00;100.00
53514;BME280;39768;54.148;12.174;2023-04-15T07:10:36;100871.25;;;13.81;100.00
53514;BME280;39768;54.148;12.174;2023-04-15T07:14:38;100879.06;;;14.24;100.00
53514;BME280;39768;54.148;12.174;2023-04-15T07:18:39;100888.25;;;14.12;100.00
53514;BME280;39768;54.148;12.174;2023-04-15T07:22:41;100886.63;;;14.39;100.00
53514;BME280;39768;54.148;12.174;2023-04-15T07:26:43;100885.53;;;14.80;100.00
53514;BME280;39768;54.148;12.174;2023-04-15T07:30:44;100890.13;;;14.75;100.00
53514;BME280;39768;54.148;12.174;2023-04-15T07:34:46;100887.50;;;14.41;100.00
53514;BME280;39768;54.148;12.174;2023-04-15T07:38:47;100884.78;;;15.06;100.00
53514;BME280;39768;54.148;12.174;2023-04-15T07:42:49;100889.88;;;15.14;100.00
53514;BME280;39768;54.148;12.174;2023-04-15T07:46:50;100894.19;;;15.47;100.00
53514;BME280;39768;54.148;12.174;2023-04-15T07:50:52;100904.50;;;15.02;100.00
53514;BME280;39768;54.148;12.174;2023-04-15T07:54:53;100904.97;;;15.44;100.00
53514;BME280;39768;54.148;12.174;2023-04-15T07:58:55;100902.53;;;15.38;100.00
53514;BME280;39768;54.148;12.174;2023-04-15T08:02:56;100904.50;;;16.15;92.80
53514;BME280;39768;54.148;12.174;2023-04-15T08:07:00;100910.53;;;15.38;96.30
53514;BME280;39768;54.148;12.174;2023-04-15T08:11:01;100916.59;;;15.43;98.04
53514;BME280;39768;54.148;12.174;2023-04-15T08:15:03;100917.09;;;16.38;95.15
53514;BME280;39768;54.148;12.174;2023-04-15T08:19:05;100915.91;;;15.94;95.59
53514;BME280;39768;54.148;12.174;2023-04-15T08:23:06;100924.91;;;15.92;93.44
53514;BME280;39768;54.148;12.174;2023-04-15T08:27:07;100929.66;;;15.56;95.25
53514;BME280;39768;54.148;12.174;2023-04-15T08:31:09;100930.56;;;15.25;95.89
53514;BME280;39768;54.148;12.174;2023-04-15T08:35:11;100922.94;;;16.76;87.99
53514;BME280;39768;54.148;12.174;2023-04-15T08:39:12;100929.19;;;15.41;90.93
53514;BME280;39768;54.148;12.174;2023-04-15T08:43:18;100935.72;;;15.00;95.24
53514;BME280;39768;54.148;12.174;2023-04-15T08:47:25;100943.97;;;15.82;92.78
53514;BME280;39768;54.148;12.174;2023-04-15T08:51:31;100940.59;;;16.30;92.45
53514;BME280;39768;54.148;12.174;2023-04-15T08:55:35;100941.94;;;15.89;93.47
53514;BME280;39768;54.148;12.174;2023-04-15T08:59:37;100948.50;;;15.51;92.12
53514;BME280;39768;54.148;12.174;2023-04-15T09:03:39;100937.53;;;15.88;94.61
53514;BME280;39768;54.148;12.174;2023-04-15T09:07:42;100936.78;;;16.62;91.52
53514;BME280;39768;54.148;12.174;2023-04-15T09:11:43;100946.81;;;15.76;91.35
53514;BME280;39768;54.148;12.174;2023-04-15T09:15:45;100949.88;;;15.92;96.84
53514;BME280;39768;54.148;12.174;2023-04-15T09:19:46;100951.09;;;16.36;93.32
53514;BME280;39768;54.148;12.174;2023-04-15T09:23:56;100969.03;;;15.50;95.87
53514;BME280;39768;54.148;12.174;2023-04-15T09:28:00;100957.47;;;16.06;94.40
53514;BME280;39768;54.148;12.174;2023-04-15T09:32:15;100967.38;;;16.56;89.26
53514;BME280;39768;54.148;12.174;2023-04-15T09:36:16;100984.47;;;16.79;87.81
53514;BME280;39768;54.148;12.174;2023-04-15T09:40:38;100986.75;;;15.84;92.69
53514;BME280;39768;54.148;12.174;2023-04-15T09:44:39;100985.19;;;16.84;89.93
53514;BME280;39768;54.148;12.174;2023-04-15T09:48:41;100984.47;;;16.00;96.61
53514;BME280;39768;54.148;12.174;2023-04-15T09:52:43;100977.72;;;17.17;89.51
53514;BME280;39768;54.148;12.174;2023-04-15T09:56:45;100980.97;;;16.24;89.08
53514;BME280;39768;54.148;12.174;2023-04-15T10:00:47;100987.97;;;16.81;87.33
53514;BME280;39768;54.148;12.174;2023-04-15T10:04:50;100983.31;;;16.07;89.69
53514;BME280;39768;54.148;12.174;2023-04-15T10:08:53;100984.50;;;17.27;86.01
53514;BME280;39768;54.148;12.174;2023-04-15T10:12:54;100986.31;;;17.73;78.54
53514;BME280;39768;54.148;12.174;2023-04-15T10:17:00;100981.00;;;16.49;90.40
53514;BME280;39768;54.148;12.174;2023-04-15T10:21:02;100994.94;;;16.86;81.20
53514;BME280;39768;54.148;12.174;2023-04-15T10:25:05;100993.66;;;17.68;76.65
53514;BME280;39768;54.148;12.174;2023-04-15T10:29:08;100998.09;;;16.46;81.38
53514;BME280;39768;54.148;12.174;2023-04-15T10:33:11;100998.22;;;17.19;78.64
53514;BME280;39768;54.148;12.174;2023-04-15T10:37:19;100993.66;;;16.97;81.25
53514;BME280;39768;54.148;12.174;2023-04-15T10:41:23;101014.06;;;17.25;76.08
53514;BME280;39768;54.148;12.174;2023-04-15T10:45:34;100998.16;;;17.68;81.78
53514;BME280;39768;54.148;12.174;2023-04-15T10:49:51;101013.22;;;18.17;76.42
53514;BME280;39768;54.148;12.174;2023-04-15T10:53:58;101011.06;;;17.58;80.05
53514;BME280;39768;54.148;12.174;2023-04-15T10:58:01;101004.91;;;17.31;80.10
53514;BME280;39768;54.148;12.174;2023-04-15T11:02:06;101016.84;;;17.22;78.30
53514;BME280;39768;54.148;12.174;2023-04-15T11:06:08;101017.78;;;17.93;72.60
53514;BME280;39768;54.148;12.174;2023-04-15T11:14:14;101023.59;;;17.09;78.08
53514;BME280;39768;54.148;12.174;2023-04-15T11:18:24;101026.81;;;17.67;71.19
53514;BME280;39768;54.148;12.174;2023-04-15T11:22:26;101036.13;;;17.57;76.89
53514;BME280;39768;54.148;12.174;2023-04-15T11:26:28;101038.63;;;16.62;81.29
53514;BME280;39768;54.148;12.174;2023-04-15T11:30:32;101044.19;;;16.84;80.95
53514;BME280;39768;54.148;12.174;2023-04-15T11:34:33;101038.38;;;16.96;80.70
53514;BME280;39768;54.148;12.174;2023-04-15T11:38:36;101043.38;;;17.55;76.92
53514;BME280;39768;54.148;12.174;2023-04-15T11:42:38;101030.56;;;16.90;82.02
53514;BME280;39768;54.148;12.174;2023-04-15T11:46:50;101041.56;;;18.02;78.11
53514;BME280;39768;54.148;12.174;2023-04-15T11:51:02;101042.13;;;17.17;77.09
53514;BME280;39768;54.148;12.174;2023-04-15T11:55:06;101046.78;;;17.83;80.41
53514;BME280;39768;54.148;12.174;2023-04-15T11:59:07;101047.72;;;17.82;72.34
53514;BME280;39768;54.148;12.174;2023-04-15T12:03:26;101045.59;;;16.41;81.19
53514;BME280;39768;54.148;12.174;2023-04-15T12:07:28;101048.16;;;18.17;74.51
53514;BME280;39768;54.148;12.174;2023-04-15T12:11:35;101051.38;;;17.56;74.98
53514;BME280;39768;54.148;12.174;2023-04-15T12:15:37;101059.63;;;17.02;78.77
53514;BME280;39768;54.148;12.174;2023-04-15T12:19:41;101065.50;;;16.61;84.58
53514;BME280;39768;54.148;12.174;2023-04-15T12:23:56;101076.69;;;15.90;87.11
53514;BME280;39768;54.148;12.174;2023-04-15T12:27:58;101078.72;;;17.43;74.89
53514;BME280;39768;54.148;12.174;2023-04-15T12:32:08;101074.66;;;16.27;81.29
53514;BME280;39768;54.148;12.174;2023-04-15T12:36:09;101083.88;;;16.99;79.80
53514;BME280;39768;54.148;12.174;2023-04-15T12:40:11;101098.78;;;15.98;85.24
53514;BME280;39768;54.148;12.174;2023-04-15T12:44:12;101098.38;;;16.67;79.82
53514;BME280;39768;54.148;12.174;2023-04-15T12:48:14;101094.66;;;17.22;80.85
53514;BME280;39768;54.148;12.174;2023-04-15T12:52:15;101097.88;;;16.27;87.21
53514;BME280;39768;54.148;12.174;2023-04-15T12:56:17;101114.31;;;15.54;88.59
53514;BME280;39768;54.148;12.174;2023-04-15T13:00:18;101110.06;;;16.07;87.44
53514;BME280;39768;54.148;12.174;2023-04-15T13:04:20;101108.31;;;16.62;84.06
53514;BME280;39768;54.148;12.174;2023-04-15T13:08:22;101108.66;;;15.96;88.67
53514;BME280;39768;54.148;12.174;2023-04-15T13:12:23;101111.88;;;17.17;82.19
53514;BME280;39768;54.148;12.174;2023-04-15T13:16:29;101119.09;;;16.33;86.30
53514;BME280;39768;54.148;12.174;2023-04-15T13:20:32;101125.81;;;15.88;86.12
53514;BME280;39768;54.148;12.174;2023-04-15T13:24:33;101127.09;;;16.34;86.35
53514;BME280;39768;54.148;12.174;2023-04-15T13:28:35;101134.47;;;15.98;89.37
53514;BME280;39768;54.148;12.174;2023-04-15T13:32:36;101132.34;;;16.67;87.71
53514;BME280;39768;54.148;12.174;2023-04-15T13:36:38;101138.44;;;16.14;87.01
53514;BME280;39768;54.148;12.174;2023-04-15T13:40:39;101146.25;;;14.94;92.46
53514;BME280;39768;54.148;12.174;2023-04-15T13:44:41;101145.97;;;15.04;98.72
53514;BME280;39768;54.148;12.174;2023-04-15T13:48:42;101157.94;;;15.88;93.70
53514;BME280;39768;54.148;12.174;2023-04-15T13:52:43;101168.91;;;14.77;95.59
53514;BME280;39768;54.148;12.174;2023-04-15T13:56:45;101169.09;;;15.41;91.74
53514;BME280;39768;54.148;12.174;2023-04-15T14:00:46;101167.75;;;14.88;97.38
53514;BME280;39768;54.148;12.174;2023-04-15T14:04:48;101172.06;;;15.29;94.99
53514;BME280;39768;54.148;12.174;2023-04-15T14:08:49;101179.88;;;15.02;95.20
53514;BME280;39768;54.148;12.174;2023-04-15T14:12:51;101183.75;;;15.26;94.96
53514;BME280;39768;54.148;12.174;2023-04-15T14:16:54;101193.31;;;15.35;94.44
53514;BME280;39768;54.148;12.174;2023-04-15T14:20:56;101187.63;;;15.47;92.95
53514;BME280;39768;54.148;12.174;2023-04-15T14:25:13;101192.25;;;15.74;89.05
53514;BME280;39768;54.148;12.174;2023-04-15T14:30:08;101204.13;;;15.30;93.88
53514;BME280;39768;54.148;12.174;2023-04-15T14:34:12;101206.34;;;15.47;93.38
53514;BME280;39768;54.148;12.174;2023-04-15T14:38:14;101210.63;;;15.20;97.00
53514;BME280;39768;54.148;12.174;2023-04-15T14:42:15;101218.88;;;15.11;96.71
53514;BME280;39768;54.148;12.174;2023-04-15T14:46:17;101228.16;;;14.96;95.49
53514;BME280;39768;54.148;12.174;2023-04-15T14:50:18;101223.41;;;15.09;90.96
53514;BME280;39768;54.148;12.174;2023-04-15T14:54:20;101225.41;;;15.35;91.38
53514;BME280;39768;54.148;12.174;2023-04-15T14:58:24;101241.06;;;14.37;95.40
53514;BME280;39768;54.148;12.174;2023-04-15T15:02:25;101245.19;;;14.54;95.57
53514;BME280;39768;54.148;12.174;2023-04-15T15:06:40;101255.38;;;15.13;92.61
53514;BME280;39768;54.148;12.174;2023-04-15T15:10:42;101261.28;;;14.89;96.08
53514;BME280;39768;54.148;12.174;2023-04-15T15:14:50;101265.09;;;14.79;91.51
53514;BME280;39768;54.148;12.174;2023-04-15T15:18:51;101266.16;;;15.10;93.81
53514;BME280;39768;54.148;12.174;2023-04-15T15:22:52;101281.94;;;14.39;92.84
53514;BME280;39768;54.148;12.174;2023-04-15T15:26:54;101290.72;;;14.01;95.09
53514;BME280;39768;54.148;12.174;2023-04-15T15:30:55;101281.75;;;14.52;96.26
53514;BME280;39768;54.148;12.174;2023-04-15T15:34:57;101285.19;;;14.12;92.75
53514;BME280;39768;54.148;12.174;2023-04-15T15:38:58;101289.56;;;14.16;95.31
53514;BME280;39768;54.148;12.174;2023-04-15T15:43:00;101292.34;;;14.55;94.66
53514;BME280;39768;54.148;12.174;2023-04-15T15:47:01;101289.75;;;14.07;98.91
53514;BME280;39768;54.148;12.174;2023-04-15T15:51:03;101295.13;;;14.04;97.44
53514;BME280;39768;54.148;12.174;2023-04-15T15:55:05;101299.53;;;14.53;95.39
53514;BME280;39768;54.148;12.174;2023-04-15T15:59:06;101302.06;;;14.14;97.23
53514;BME280;39768;54.148;12.174;2023-04-15T16:03:08;101309.31;;;14.07;97.07
53514;BME280;39768;54.148;12.174;2023-04-15T16:07:10;101298.41;;;14.63;95.61
53514;BME280;39768;54.148;12.174;2023-04-15T16:11:12;101313.78;;;14.07;97.64
53514;BME280;39768;54.148;12.174;2023-04-15T16:15:13;101320.03;;;13.55;99.01
53514;BME280;39768;54.148;12.174;2023-04-15T16:19:15;101320.38;;;13.86;97.03
53514;BME280;39768;54.148;12.174;2023-04-15T16:23:17;101320.78;;;14.57;94.97
53514;BME280;39768;54.148;12.174;2023-04-15T16:27:19;101335.34;;;14.42;95.67
53514;BME280;39768;54.148;12.174;2023-04-15T16:31:21;101330.34;;;13.76;96.03
53514;BME280;39768;54.148;12.174;2023-04-15T16:35:22;101335.81;;;14.18;97.82
53514;BME280;39768;54.148;12.174;2023-04-15T16:39:24;101337.03;;;14.00;97.04
53514;BME280;39768;54.148;12.174;2023-04-15T16:43:26;101336.94;;;14.05;97.97
53514;BME280;39768;54.148;12.174;2023-04-15T16:47:27;101344.97;;;14.05;97.33
53514;BME280;39768;54.148;12.174;2023-04-15T16:51:29;101340.78;;;13.36;100.00
53514;BME280;39768;54.148;12.174;2023-04-15T16:55:31;101361.31;;;13.31;100.00
53514;BME280;39768;54.148;12.174;2023-04-15T16:59:33;101364.28;;;13.07;100.00
53514;BME280;39768;54.148;12.174;2023-04-15T17:03:34;101376.03;;;12.92;100.00
53514;BME280;39768;54.148;12.174;2023-04-15T17:07:37;101372.03;;;12.59;100.00
53514;BME280;39768;54.148;12.174;2023-04-15T17:11:38;101383.22;;;12.87;100.00
53514;BME280;39768;54.148;12.174;2023-04-15T17:15:41;101381.63;;;13.38;100.00
53514;BME280;39768;54.148;12.174;2023-04-15T17:19:42;101398.50;;;12.73;100.00
53514;BME280;39768;54.148;12.174;2023-04-15T17:23:43;101403.19;;;12.50;100.00
53514;BME280;39768;54.148;12.174;2023-04-15T17:27:45;101405.78;;;12.59;100.00
53514;BME280;39768;54.148;12.174;2023-04-15T17:31:46;101409.38;;;12.55;100.00
53514;BME280;39768;54.148;12.174;2023-04-15T17:35:48;101412.97;;;12.48;100.00
53514;BME280;39768;54.148;12.174;2023-04-15T17:39:49;101420.38;;;12.20;100.00
53514;BME280;39768;54.148;12.174;2023-04-15T17:43:51;101422.69;;;12.55;100.00
53514;BME280;39768;54.148;12.174;2023-04-15T17:47:52;101424.75;;;12.28;100.00
53514;BME280;39768;54.148;12.174;2023-04-15T17:51:54;101426.84;;;11.90;100.00
53514;BME280;39768;54.148;12.174;2023-04-15T17:55:56;101430.22;;;12.12;100.00
53514;BME280;39768;54.148;12.174;2023-04-15T17:59:58;101441.09;;;11.86;100.00
53514;BME280;39768;54.148;12.174;2023-04-15T18:03:59;101448.25;;;11.72;100.00
53514;BME280;39768;54.148;12.174;2023-04-15T18:08:01;101455.31;;;11.74;100.00
53514;BME280;39768;54.148;12.174;2023-04-15T18:12:03;101468.84;;;11.42;100.00
53514;BME280;39768;54.148;12.174;2023-04-15T18:16:09;101474.88;;;11.72;100.00
53514;BME280;39768;54.148;12.174;2023-04-15T18:20:10;101481.22;;;11.45;100.00
53514;BME280;39768;54.148;12.174;2023-04-15T18:24:13;101481.94;;;11.76;100.00
53514;BME280;39768;54.148;12.174;2023-04-15T18:28:15;101485.50;;;11.70;100.00
53514;BME280;39768;54.148;12.174;2023-04-15T18:32:17;101489.16;;;11.49;100.00
53514;BME280;39768;54.148;12.174;2023-04-15T18:36:18;101497.13;;;11.54;100.00
53514;BME280;39768;54.148;12.174;2023-04-15T18:40:19;101497.13;;;11.54;100.00
53514;BME280;39768;54.148;12.174;2023-04-15T18:44:21;101504.25;;;11.43;100.00
53514;BME280;39768;54.148;12.174;2023-04-15T18:48:25;101516.63;;;11.51;100.00
53514;BME280;39768;54.148;12.174;2023-04-15T18:52:26;101520.28;;;11.29;100.00
53514;BME280;39768;54.148;12.174;2023-04-15T18:56:29;101531.72;;;11.49;100.00
53514;BME280;39768;54.148;12.174;2023-04-15T19:00:31;101525.69;;;11.06;100.00
53514;BME280;39768;54.148;12.174;2023-04-15T19:04:32;101533.50;;;11.43;100.00
53514;BME280;39768;54.148;12.174;2023-04-15T19:08:34;101528.16;;;11.47;100.00
53514;BME280;39768;54.148;12.174;2023-04-15T19:12:35;101527.28;;;11.47;100.00
53514;BME280;39768;54.148;12.174;2023-04-15T19:16:37;101537.81;;;11.71;100.00
53514;BME280;39768;54.148;12.174;2023-04-15T19:20:38;101535.31;;;11.39;100.00
53514;BME280;39768;54.148;12.174;2023-04-15T19:24:40;101550.25;;;11.63;100.00
53514;BME280;39768;54.148;12.174;2023-04-15T19:28:42;101549.44;;;11.47;100.00
53514;BME280;39768;54.148;12.174;2023-04-15T19:32:43;101556.34;;;11.88;100.00
53514;BME280;39768;54.148;12.174;2023-04-15T19:36:45;101562.50;;;12.00;100.00
53514;BME280;39768;54.148;12.174;2023-04-15T19:40:46;101562.00;;;11.12;100.00
53514;BME280;39768;54.148;12.174;2023-04-15T19:44:48;101562.72;;;11.49;100.00
53514;BME280;39768;54.148;12.174;2023-04-15T19:48:49;101563.63;;;11.43;100.00
53514;BME280;39768;54.148;12.174;2023-04-15T19:52:51;101562.91;;;10.83;100.00
53514;BME280;39768;54.148;12.174;2023-04-15T19:56:52;101568.94;;;11.49;100.00
53514;BME280;39768;54.148;12.174;2023-04-15T20:00:54;101568.81;;;11.77;100.00
53514;BME280;39768;54.148;12.174;2023-04-15T20:04:55;101563.69;;;11.34;100.00
53514;BME280;39768;54.148;12.174;2023-04-15T20:08:57;101567.06;;;11.70;100.00
53514;BME280;39768;54.148;12.174;2023-04-15T20:12:58;101568.00;;;11.59;100.00
53514;BME280;39768;54.148;12.174;2023-04-15T20:17:00;101566.16;;;11.77;100.00
53514;BME280;39768;54.148;12.174;2023-04-15T20:21:01;101572.34;;;11.73;100.00
53514;BME280;39768;54.148;12.174;2023-04-15T20:25:03;101563.31;;;12.07;100.00
53514;BME280;39768;54.148;12.174;2023-04-15T20:29:05;101567.09;;;11.62;100.00
53514;BME280;39768;54.148;12.174;2023-04-15T20:33:06;101567.97;;;11.72;100.00
53514;BME280;39768;54.148;12.174;2023-04-15T20:37:09;101572.38;;;11.76;100.00
53514;BME280;39768;54.148;12.174;2023-04-15T20:41:11;101573.28;;;11.67;100.00
53514;BME280;39768;54.148;12.174;2023-04-15T20:45:13;101585.84;;;11.31;100.00